Time;durP1;ratioP1;P1;durP2;ratioP2;P2;SDS_P1;SDS_P2;PMS_P1;PMS_P2;Temp;Humidity;BMP_temperature;BMP_pressure;BME280_temperature;BME280_humidity;BME280_pressure;Samples;Min_cycle;Max_cycle;Signal;HPM_P1;HPM_P2
2023/05/30 00:01:06;;;;;;;1.00;0.80;;;22.90;55.40;;;;;;222460;1268;25325;-52
2023/05/30 00:06:12;;;;;;;1.00;1.00;;;22.90;55.40;;;;;;222501;1264;24458;-52
2023/05/30 00:11:18;;;;;;;1.10;1.00;;;22.90;55.50;;;;;;222490;1268;22520;-53
2023/05/30 00:16:23;;;;;;;1.10;1.10;;;22.90;55.40;;;;;;222551;1268;22564;-57
2023/05/30 00:21:28;;;;;;;1.10;1.00;;;22.90;55.50;;;;;;222449;1268;24519;-53
2023/05/30 00:26:32;;;;;;;1.00;1.00;;;22.80;55.40;;;;;;222518;1268;22627;-50
2023/05/30 00:31:36;;;;;;;1.30;1.00;;;22.80;55.40;;;;;;222343;1268;22644;-53
2023/05/30 00:36:41;;;;;;;1.30;1.20;;;22.80;55.40;;;;;;222521;1268;22809;-55
2023/05/30 00:41:45;;;;;;;1.30;1.20;;;22.80;55.40;;;;;;222222;1268;22583;-53
2023/05/30 00:46:51;;;;;;;0.90;0.90;;;22.80;55.30;;;;;;222485;1267;23689;-57
2023/05/30 00:51:56;;;;;;;1.10;1.00;;;22.80;55.40;;;;;;222464;1264;24050;-52
2023/05/30 00:57:01;;;;;;;0.90;0.90;;;22.90;55.40;;;;;;222489;1268;22508;-56
2023/05/30 01:02:05;;;;;;;1.00;1.00;;;22.80;55.70;;;;;;222430;1268;24193;-52
2023/05/30 01:07:10;;;;;;;0.90;0.90;;;22.80;55.30;;;;;;222575;1264;22747;-51
2023/05/30 01:12:36;;;;;;;1.20;1.10;;;22.90;55.40;;;;;;222179;1268;22549;-54
2023/05/30 01:18:04;;;;;;;1.20;1.20;;;22.80;55.70;;;;;;222850;1268;22515;-54
2023/05/30 01:23:36;;;;;;;1.30;1.20;;;22.80;55.30;;;;;;222555;1268;22780;-52
2023/05/30 01:28:43;;;;;;;1.30;1.20;;;22.80;55.30;;;;;;222381;1267;25496;-53
2023/05/30 01:33:48;;;;;;;0.90;0.90;;;22.80;55.30;;;;;;222537;1263;22611;-55
2023/05/30 01:38:52;;;;;;;1.30;1.20;;;22.80;55.60;;;;;;222550;1268;22770;-55
2023/05/30 01:44:25;;;;;;;1.10;1.00;;;22.80;55.30;;;;;;222453;1268;22923;-56
2023/05/30 01:50:03;;;;;;;1.30;1.10;;;22.80;55.30;;;;;;221180;1260;22520;-53
2023/05/30 01:55:10;;;;;;;0.80;0.80;;;22.80;55.20;;;;;;221116;1275;22855;-51
2023/05/30 02:00:15;;;;;;;1.00;1.00;;;22.80;55.10;;;;;;221237;1263;22641;-52
2023/05/30 02:05:20;;;;;;;1.10;1.10;;;22.80;55.20;;;;;;221126;1274;25393;-51
2023/05/30 02:10:24;;;;;;;1.20;1.10;;;22.70;55.30;;;;;;220947;1275;22630;-52
2023/05/30 02:15:29;;;;;;;0.90;0.90;;;22.70;55.20;;;;;;221040;1269;425722;-56
2023/05/30 02:20:33;;;;;;;0.90;0.90;;;22.70;55.10;;;;;;221199;1275;22524;-54
2023/05/30 02:25:37;;;;;;;1.20;1.20;;;22.70;55.60;;;;;;221807;1269;22561;-54
2023/05/30 02:30:45;;;;;;;1.20;1.10;;;22.70;55.20;;;;;;222345;1269;25400;-53
2023/05/30 02:35:49;;;;;;;1.30;1.20;;;22.70;55.10;;;;;;221761;1270;22515;-56
2023/05/30 02:40:53;;;;;;;1.30;1.20;;;22.70;55.10;;;;;;222128;1270;22678;-51
2023/05/30 02:46:01;;;;;;;1.00;1.00;;;22.70;55.30;;;;;;222130;1267;22682;-52
2023/05/30 02:51:05;;;;;;;1.80;1.10;;;22.60;55.60;;;;;;222064;1268;22640;-54
2023/05/30 02:56:09;;;;;;;1.10;1.00;;;22.70;55.30;;;;;;222139;1268;22520;-51
2023/05/30 03:01:23;;;;;;;1.00;1.00;;;22.70;55.60;;;;;;222363;1268;22643;-58
2023/05/30 03:06:28;;;;;;;0.80;0.80;;;22.70;55.20;;;;;;222555;1264;24346;-53
2023/05/30 03:12:08;;;;;;;1.20;1.10;;;22.70;55.00;;;;;;222361;1268;22512;-56
2023/05/30 03:17:13;;;;;;;1.10;1.00;;;22.70;54.90;;;;;;222431;1244;22519;-55
2023/05/30 03:22:17;;;;;;;1.00;1.00;;;22.70;55.00;;;;;;222430;1267;22514;-56
2023/05/30 03:27:21;;;;;;;1.40;1.10;;;22.70;54.70;;;;;;222398;1265;22643;-52
2023/05/30 03:32:26;;;;;;;1.30;1.20;;;22.70;54.90;;;;;;222487;1252;24046;-54
2023/05/30 03:37:30;;;;;;;1.20;1.10;;;22.70;54.70;;;;;;222487;1268;22531;-52
2023/05/30 03:42:35;;;;;;;1.00;1.00;;;22.70;54.60;;;;;;222487;1268;22515;-53
2023/05/30 03:47:40;;;;;;;1.20;1.20;;;22.70;54.60;;;;;;222617;1260;22635;-55
2023/05/30 03:52:44;;;;;;;1.10;1.00;;;22.70;54.80;;;;;;222481;1268;23626;-50
2023/05/30 03:57:49;;;;;;;1.30;1.20;;;22.70;54.70;;;;;;222404;1268;22524;-54
2023/05/30 04:02:53;;;;;;;1.40;1.30;;;22.70;54.80;;;;;;222210;1268;23098;-54
2023/05/30 04:07:58;;;;;;;1.20;1.10;;;22.70;54.70;;;;;;222513;1268;23639;-52
2023/05/30 04:13:02;;;;;;;1.40;1.30;;;22.70;54.80;;;;;;222162;1268;22513;-51
2023/05/30 04:18:06;;;;;;;1.10;1.00;;;22.60;54.80;;;;;;222654;1268;25324;-53
2023/05/30 04:23:10;;;;;;;1.10;1.10;;;22.70;54.80;;;;;;222643;1268;22768;-49
2023/05/30 04:28:17;;;;;;;1.00;1.00;;;22.60;54.80;;;;;;222524;1268;22513;-56
2023/05/30 04:33:22;;;;;;;1.20;1.10;;;22.70;55.10;;;;;;222288;1264;22816;-51
2023/05/30 04:38:26;;;;;;;2.10;1.90;;;22.60;54.80;;;;;;222039;1269;24416;-50
2023/05/30 04:43:34;;;;;;;1.10;1.00;;;22.60;54.80;;;;;;222326;1269;25387;-52
2023/05/30 04:48:38;;;;;;;1.40;1.30;;;22.70;54.80;;;;;;222356;1267;22534;-53
2023/05/30 04:53:42;;;;;;;1.10;1.00;;;22.60;54.80;;;;;;222013;1269;22520;-53
2023/05/30 04:58:48;;;;;;;0.90;0.90;;;22.60;54.90;;;;;;222009;1268;22658;-54
2023/05/30 05:03:53;;;;;;;1.50;1.20;;;22.60;54.90;;;;;;222380;1268;22788;-52
2023/05/30 05:08:57;;;;;;;1.30;1.10;;;22.60;54.80;;;;;;222567;1262;25600;-53
2023/05/30 05:14:04;;;;;;;1.20;1.10;;;22.60;54.90;;;;;;222512;1266;24241;-55
2023/05/30 05:19:08;;;;;;;1.40;1.30;;;22.50;54.90;;;;;;222454;1265;22530;-49
2023/05/30 05:24:12;;;;;;;1.30;1.10;;;22.50;54.90;;;;;;222527;1268;22497;-54
2023/05/30 05:29:18;;;;;;;1.50;1.40;;;22.60;54.80;;;;;;222621;1268;22511;-51
2023/05/30 05:34:22;;;;;;;1.10;1.00;;;22.60;54.80;;;;;;222573;1268;22911;-54
2023/05/30 05:39:26;;;;;;;1.10;1.00;;;22.60;54.70;;;;;;222475;1268;22525;-52
2023/05/30 05:44:30;;;;;;;0.90;0.90;;;22.60;54.60;;;;;;222596;1268;22650;-54
2023/05/30 05:49:34;;;;;;;1.60;1.50;;;22.60;54.50;;;;;;222609;1266;23877;-52
2023/05/30 05:54:38;;;;;;;1.60;1.50;;;22.60;54.60;;;;;;222499;1268;24219;-50
2023/05/30 05:59:42;;;;;;;1.50;1.20;;;22.60;54.60;;;;;;222323;1269;22654;-52
2023/05/30 06:04:47;;;;;;;1.10;1.10;;;22.60;54.50;;;;;;222414;1269;23930;-53
2023/05/30 06:09:51;;;;;;;1.30;1.20;;;22.60;54.50;;;;;;222276;1265;22518;-52
2023/05/30 06:14:55;;;;;;;1.00;1.00;;;22.70;55.00;;;;;;222245;1269;22523;-54
2023/05/30 06:20:01;;;;;;;1.10;1.10;;;22.70;54.90;;;;;;222331;1269;24337;-55
2023/05/30 06:25:06;;;;;;;1.00;0.90;;;22.70;54.50;;;;;;222497;1269;25374;-52
2023/05/30 06:30:10;;;;;;;1.30;1.20;;;22.70;54.70;;;;;;222251;1269;23289;-56
2023/05/30 06:35:14;;;;;;;1.10;1.00;;;22.70;54.50;;;;;;221988;1270;24180;-55
2023/05/30 06:40:19;;;;;;;0.70;0.70;;;22.70;54.50;;;;;;222000;1270;22514;-52
2023/05/30 06:45:23;;;;;;;1.30;1.20;;;22.70;54.80;;;;;;221928;1270;22517;-52
2023/05/30 06:50:28;;;;;;;1.40;1.20;;;22.70;54.50;;;;;;221852;1270;22527;-53
2023/05/30 06:55:32;;;;;;;1.00;1.00;;;22.70;54.40;;;;;;222102;1270;25410;-50
2023/05/30 07:00:38;;;;;;;0.90;0.90;;;22.80;54.30;;;;;;221914;1268;22934;-53
2023/05/30 07:05:42;;;;;;;1.00;1.00;;;22.80;54.30;;;;;;221990;1270;22668;-52
2023/05/30 07:10:49;;;;;;;0.90;0.90;;;22.80;54.70;;;;;;222253;1270;22526;-57
2023/05/30 07:15:53;;;;;;;0.90;0.90;;;22.80;54.30;;;;;;221996;1269;24042;-51
2023/05/30 07:20:57;;;;;;;0.90;0.80;;;22.80;54.30;;;;;;221805;1270;22564;-51
2023/05/30 07:26:02;;;;;;;0.90;0.90;;;22.80;54.20;;;;;;221947;1270;25518;-51
2023/05/30 07:31:06;;;;;;;1.20;1.10;;;22.80;54.30;;;;;;222097;1264;22512;-52
2023/05/30 07:36:11;;;;;;;1.30;1.20;;;22.80;54.30;;;;;;222053;1269;26501;-51
2023/05/30 07:41:16;;;;;;;0.70;0.70;;;22.90;54.20;;;;;;222234;1269;24246;-55
2023/05/30 07:46:20;;;;;;;1.20;1.10;;;22.90;54.30;;;;;;222391;1268;22570;-53
2023/05/30 07:51:24;;;;;;;1.20;1.10;;;22.90;54.10;;;;;;222226;1260;25256;-55
2023/05/30 07:56:29;;;;;;;0.90;0.90;;;22.90;54.10;;;;;;222445;1268;22508;-51
2023/05/30 08:01:33;;;;;;;0.90;0.90;;;22.90;54.20;;;;;;222490;1268;25201;-54
2023/05/30 08:06:38;;;;;;;1.10;1.10;;;22.90;54.20;;;;;;222379;1268;22467;-52
2023/05/30 08:11:42;;;;;;;1.80;1.20;;;22.90;54.80;;;;;;222493;1268;25598;-53
2023/05/30 08:16:46;;;;;;;0.90;0.90;;;22.90;54.10;;;;;;222480;1268;22504;-56
2023/05/30 08:21:50;;;;;;;1.00;1.00;;;22.90;54.10;;;;;;222406;1268;24207;-56
2023/05/30 08:26:54;;;;;;;1.20;1.10;;;23.00;54.10;;;;;;222328;1268;22606;-52
2023/05/30 08:31:58;;;;;;;1.10;1.00;;;23.00;54.10;;;;;;222528;1266;22504;-49
2023/05/30 08:37:03;;;;;;;1.30;1.20;;;23.00;54.10;;;;;;222432;1269;25480;-55
2023/05/30 08:42:09;;;;;;;0.90;0.90;;;23.00;54.20;;;;;;222109;1269;25345;-55
2023/05/30 08:47:16;;;;;;;1.10;1.00;;;23.00;54.10;;;;;;222192;1269;22545;-53
2023/05/30 08:52:24;;;;;;;1.00;0.90;;;23.00;54.10;;;;;;222435;1267;23592;-52
2023/05/30 08:57:59;;;;;;;1.30;1.20;;;23.00;54.00;;;;;;222485;1267;25800;-51
2023/05/30 09:03:05;;;;;;;1.20;1.00;;;23.00;54.10;;;;;;222435;1269;24174;-54
2023/05/30 09:08:12;;;;;;;1.40;1.20;;;23.10;54.00;;;;;;222318;1269;24392;-56
2023/05/30 09:13:16;;;;;;;0.90;0.90;;;23.10;54.00;;;;;;222167;1268;22623;-54
2023/05/30 09:18:20;;;;;;;1.20;1.10;;;23.10;54.00;;;;;;222160;1268;22638;-55
2023/05/30 09:23:24;;;;;;;1.10;1.00;;;23.10;53.90;;;;;;222094;1268;22516;-53
2023/05/30 09:28:28;;;;;;;0.90;0.90;;;23.10;53.80;;;;;;222275;1269;22508;-55
2023/05/30 09:33:44;;;;;;;0.90;0.90;;;23.10;53.80;;;;;;222375;1268;22504;-54
2023/05/30 09:38:56;;;;;;;0.70;0.70;;;23.20;53.70;;;;;;222639;1265;22634;-51
2023/05/30 09:44:04;;;;;;;0.80;0.80;;;23.20;54.20;;;;;;222432;1268;22527;-53
2023/05/30 09:49:13;;;;;;;0.80;0.80;;;23.20;53.70;;;;;;222743;1263;22518;-54
2023/05/30 09:54:19;;;;;;;0.90;0.90;;;23.20;53.60;;;;;;222602;1268;22738;-54
2023/05/30 09:59:25;;;;;;;0.80;0.80;;;23.30;53.70;;;;;;222388;1268;24187;-54
2023/05/30 10:04:30;;;;;;;1.30;0.90;;;23.30;53.60;;;;;;222766;1267;24193;-54
2023/05/30 10:09:35;;;;;;;1.30;0.80;;;23.30;53.50;;;;;;222438;1268;25871;-53
2023/05/30 10:14:39;;;;;;;1.00;0.90;;;23.30;53.40;;;;;;222583;1266;24184;-51
2023/05/30 10:20:02;;;;;;;1.10;1.00;;;23.40;53.50;;;;;;222397;1268;25482;-51
2023/05/30 10:25:08;;;;;;;0.70;0.70;;;23.40;53.40;;;;;;222617;1267;22798;-53
2023/05/30 10:30:17;;;;;;;0.90;0.70;;;23.40;53.30;;;;;;222649;1266;25549;-53
2023/05/30 10:35:22;;;;;;;0.80;0.80;;;23.50;53.20;;;;;;222593;1268;22560;-52
2023/05/30 10:40:45;;;;;;;0.90;0.80;;;23.50;53.50;;;;;;222399;1256;22508;-53
2023/05/30 10:46:21;;;;;;;0.80;0.80;;;23.50;53.10;;;;;;222689;1259;24233;-53
2023/05/30 10:51:26;;;;;;;0.90;0.90;;;23.50;53.10;;;;;;222629;1262;22733;-53
2023/05/30 10:56:38;;;;;;;0.80;0.80;;;23.60;53.10;;;;;;222676;1268;22682;-53
2023/05/30 11:01:58;;;;;;;0.90;0.80;;;23.60;53.40;;;;;;222708;1266;22526;-55
2023/05/30 11:07:07;;;;;;;1.30;0.90;;;23.60;53.00;;;;;;222621;1265;22510;-53
2023/05/30 11:12:24;;;;;;;0.80;0.80;;;23.70;53.30;;;;;;222519;1268;22504;-54
2023/05/30 11:17:30;;;;;;;1.20;0.90;;;23.70;53.00;;;;;;222516;1268;22675;-52
2023/05/30 11:22:37;;;;;;;0.70;0.70;;;23.70;52.90;;;;;;222521;1268;24187;-54
2023/05/30 11:28:12;;;;;;;1.20;1.10;;;23.70;53.00;;;;;;222530;1267;22623;-56
2023/05/30 11:33:17;;;;;;;0.90;0.80;;;23.70;52.60;;;;;;222914;1264;22532;-51
2023/05/30 11:38:23;;;;;;;1.20;1.00;;;23.70;53.10;;;;;;222638;1268;22520;-54
2023/05/30 11:43:28;;;;;;;1.20;0.80;;;23.70;52.80;;;;;;222392;1268;22524;-55
2023/05/30 11:48:33;;;;;;;0.90;0.90;;;23.70;52.80;;;;;;222701;1268;22523;-50
2023/05/30 11:53:39;;;;;;;1.30;1.10;;;23.70;53.10;;;;;;222611;1268;25230;-54
2023/05/30 11:58:43;;;;;;;0.90;0.90;;;23.80;52.90;;;;;;222654;1266;25241;-54
2023/05/30 12:03:47;;;;;;;1.30;0.90;;;23.80;52.90;;;;;;222709;1268;24299;-52
2023/05/30 12:08:52;;;;;;;1.10;1.10;;;23.80;52.70;;;;;;222534;1268;24196;-56
2023/05/30 12:13:56;;;;;;;1.10;0.90;;;23.80;52.80;;;;;;222437;1268;22757;-53
2023/05/30 12:19:00;;;;;;;1.10;1.00;;;23.80;52.80;;;;;;222545;1268;22563;-53
2023/05/30 12:24:09;;;;;;;0.70;0.70;;;23.80;53.10;;;;;;222776;1261;25288;-50
2023/05/30 12:29:13;;;;;;;1.00;0.80;;;23.80;52.90;;;;;;222355;1268;26511;-51
2023/05/30 12:34:18;;;;;;;0.90;0.90;;;23.80;52.70;;;;;;222487;1268;22513;-53
2023/05/30 12:39:22;;;;;;;1.00;0.90;;;23.90;53.10;;;;;;222549;1268;23934;-51
2023/05/30 12:44:26;;;;;;;1.00;0.90;;;23.90;52.80;;;;;;222423;1268;25262;-53
2023/05/30 12:49:30;;;;;;;1.10;0.90;;;23.90;52.90;;;;;;222615;1268;22509;-52
2023/05/30 12:54:35;;;;;;;1.00;0.80;;;23.90;52.70;;;;;;222663;1267;25268;-54
2023/05/30 12:59:40;;;;;;;0.70;0.70;;;23.90;52.80;;;;;;222347;1268;22518;-54
2023/05/30 13:04:44;;;;;;;1.30;0.80;;;23.90;52.80;;;;;;222391;1268;24292;-52
2023/05/30 13:09:49;;;;;;;0.80;0.80;;;23.90;52.70;;;;;;222391;1268;22559;-51
2023/05/30 13:14:53;;;;;;;0.70;0.70;;;23.90;52.70;;;;;;222581;1266;22632;-53
2023/05/30 13:19:57;;;;;;;0.90;0.90;;;23.90;52.60;;;;;;222480;1268;23615;-54
2023/05/30 13:25:02;;;;;;;0.70;0.70;;;23.90;52.70;;;;;;222589;1263;25388;-55
2023/05/30 13:30:09;;;;;;;0.70;0.70;;;23.90;52.80;;;;;;222619;1266;22524;-52
2023/05/30 13:35:13;;;;;;;0.80;0.80;;;23.90;53.10;;;;;;222927;1268;25343;-53
2023/05/30 13:40:17;;;;;;;1.80;0.90;;;23.90;52.90;;;;;;222416;1268;22523;-51
2023/05/30 13:45:21;;;;;;;0.70;0.70;;;24.00;52.80;;;;;;222439;1268;22523;-53
2023/05/30 13:50:25;;;;;;;1.40;0.90;;;23.90;52.70;;;;;;222594;1268;22516;-55
2023/05/30 13:55:31;;;;;;;0.80;0.80;;;23.90;52.80;;;;;;222357;1268;24221;-54
2023/05/30 14:00:35;;;;;;;0.70;0.70;;;23.90;52.80;;;;;;222579;1266;24206;-53
2023/05/30 14:05:39;;;;;;;0.70;0.70;;;24.00;52.80;;;;;;222402;1268;22509;-53
2023/05/30 14:10:43;;;;;;;0.70;0.70;;;23.90;52.70;;;;;;222337;1268;242586;-54
2023/05/30 14:15:51;;;;;;;0.70;0.70;;;23.90;53.20;;;;;;222257;1267;24324;-54
2023/05/30 14:20:55;;;;;;;0.80;0.80;;;24.00;52.90;;;;;;222549;1268;22636;-54
2023/05/30 14:26:00;;;;;;;1.30;0.60;;;24.00;52.90;;;;;;222731;1268;25712;-52
2023/05/30 14:31:05;;;;;;;1.30;1.20;;;23.90;53.00;;;;;;222793;1268;22863;-52
2023/05/30 14:36:09;;;;;;;0.70;0.70;;;24.00;53.10;;;;;;222488;1268;22519;-52
2023/05/30 14:41:13;;;;;;;0.80;0.80;;;23.90;53.40;;;;;;222342;1268;22569;-55
2023/05/30 14:46:17;;;;;;;1.20;1.10;;;23.90;53.10;;;;;;222569;1268;22530;-55
2023/05/30 14:51:22;;;;;;;0.60;0.60;;;23.90;53.10;;;;;;222357;1268;22520;-54
2023/05/30 14:56:26;;;;;;;0.70;0.70;;;23.90;53.80;;;;;;222621;1268;24184;-51
2023/05/30 15:01:30;;;;;;;1.10;1.00;;;23.90;53.20;;;;;;222526;1268;23892;-53
2023/05/30 15:06:48;;;;;;;0.80;0.60;;;23.90;53.90;;;;;;222403;1268;24211;-53
2023/05/30 15:11:52;;;;;;;0.70;0.70;;;23.90;53.30;;;;;;222548;1268;22733;-55
2023/05/30 15:16:58;;;;;;;0.60;0.60;;;23.90;53.30;;;;;;222586;1268;22793;-55
2023/05/30 15:22:03;;;;;;;0.80;0.80;;;23.90;53.30;;;;;;222564;1267;25520;-50
2023/05/30 15:27:08;;;;;;;0.80;0.80;;;23.90;53.30;;;;;;222565;1248;24302;-54
2023/05/30 15:32:12;;;;;;;0.70;0.60;;;23.90;53.30;;;;;;222565;1268;23933;-54
2023/05/30 15:37:16;;;;;;;0.90;0.90;;;23.90;53.30;;;;;;222491;1268;22521;-52
2023/05/30 15:42:21;;;;;;;0.90;0.80;;;23.90;53.40;;;;;;222427;1268;22509;-53
2023/05/30 15:47:25;;;;;;;1.00;0.70;;;23.90;53.40;;;;;;222581;1268;25211;-54
2023/05/30 15:52:29;;;;;;;1.30;0.90;;;23.90;53.30;;;;;;222624;1254;24390;-53
2023/05/30 15:57:34;;;;;;;1.70;1.00;;;23.90;53.40;;;;;;222629;1268;22633;-53
2023/05/30 16:02:39;;;;;;;0.80;0.70;;;23.80;53.70;;;;;;222607;1268;22769;-51
2023/05/30 16:07:43;;;;;;;0.90;0.80;;;23.80;53.40;;;;;;222616;1266;23102;-53
2023/05/30 16:12:47;;;;;;;1.00;0.90;;;23.80;53.40;;;;;;222447;1268;22521;-54
2023/05/30 16:17:52;;;;;;;3.00;1.00;;;23.80;53.30;;;;;;222345;1257;22610;-54
2023/05/30 16:22:57;;;;;;;1.40;0.80;;;23.80;53.40;;;;;;222358;1268;22525;-54
2023/05/30 16:28:01;;;;;;;1.70;0.90;;;23.80;53.30;;;;;;222379;1268;22764;-53
2023/05/30 16:33:05;;;;;;;2.20;0.80;;;23.80;53.30;;;;;;222417;1268;22521;-55
2023/05/30 16:38:10;;;;;;;1.60;1.00;;;23.80;53.60;;;;;;222720;1266;24214;-54
2023/05/30 16:43:15;;;;;;;1.30;0.80;;;23.80;53.10;;;;;;222452;1268;24180;-53
2023/05/30 16:48:20;;;;;;;1.10;0.90;;;23.80;52.90;;;;;;222422;1268;24359;-52
2023/05/30 16:53:24;;;;;;;3.60;0.90;;;23.90;52.90;;;;;;222287;1268;25322;-52
2023/05/30 16:58:29;;;;;;;1.70;0.90;;;23.80;53.20;;;;;;222654;1268;24244;-52
2023/05/30 17:03:35;;;;;;;3.20;0.80;;;23.80;53.20;;;;;;222522;1268;24045;-55
2023/05/30 17:08:41;;;;;;;1.30;0.90;;;23.70;53.30;;;;;;221483;1269;22615;-54
2023/05/30 17:13:45;;;;;;;1.70;0.70;;;23.70;53.30;;;;;;221594;1273;22574;-53
2023/05/30 17:18:49;;;;;;;1.80;0.90;;;23.70;53.60;;;;;;221372;1273;22539;-52
2023/05/30 17:23:54;;;;;;;1.00;0.90;;;23.70;53.60;;;;;;221394;1273;22556;-52
2023/05/30 17:28:58;;;;;;;1.20;0.60;;;23.70;53.20;;;;;;221458;1273;24318;-51
2023/05/30 17:34:03;;;;;;;2.90;1.10;;;23.70;53.20;;;;;;222479;1268;24592;-50
2023/05/30 17:39:10;;;;;;;1.00;0.90;;;23.70;53.20;;;;;;222607;1269;23122;-53
2023/05/30 17:44:15;;;;;;;3.00;1.30;;;23.70;53.10;;;;;;222650;1268;24244;-55
2023/05/30 17:49:20;;;;;;;1.60;0.90;;;23.70;53.20;;;;;;222462;1267;24230;-53
2023/05/30 17:54:25;;;;;;;2.80;0.90;;;23.70;53.20;;;;;;222610;1268;22510;-55
2023/05/30 17:59:30;;;;;;;1.00;0.90;;;23.70;53.40;;;;;;222898;1264;24183;-57
2023/05/30 18:04:34;;;;;;;1.40;1.10;;;23.70;53.00;;;;;;222590;1268;22505;-53
2023/05/30 18:09:39;;;;;;;1.40;0.90;;;23.70;53.00;;;;;;222561;1268;22514;-51
2023/05/30 18:14:43;;;;;;;3.20;1.00;;;23.70;53.00;;;;;;222646;1266;23882;-54
2023/05/30 18:19:51;;;;;;;1.10;1.00;;;23.60;53.10;;;;;;222612;1259;24285;-52
2023/05/30 18:24:56;;;;;;;1.20;0.70;;;23.60;53.00;;;;;;222544;1268;22749;-53
2023/05/30 18:30:01;;;;;;;0.90;0.90;;;23.60;53.20;;;;;;222938;1258;24230;-51
2023/05/30 18:35:07;;;;;;;1.60;1.40;;;23.60;53.20;;;;;;222295;1269;22635;-53
2023/05/30 18:40:13;;;;;;;2.90;1.10;;;23.60;53.30;;;;;;222054;1269;24248;-57
2023/05/30 18:45:18;;;;;;;1.60;1.10;;;23.60;53.20;;;;;;222181;1269;25340;-50
2023/05/30 18:50:26;;;;;;;0.80;0.80;;;23.60;53.30;;;;;;222257;1269;22910;-52
2023/05/30 18:55:30;;;;;;;1.40;0.90;;;23.60;53.30;;;;;;222127;1267;22600;-53
2023/05/30 19:00:35;;;;;;;3.00;1.10;;;23.60;53.30;;;;;;222200;1269;22511;-52
2023/05/30 19:05:39;;;;;;;1.20;1.00;;;23.60;53.60;;;;;;222534;1267;25108;-52
2023/05/30 19:10:44;;;;;;;2.30;1.30;;;23.60;53.30;;;;;;222411;1269;22528;-53
2023/05/30 19:15:50;;;;;;;1.80;0.90;;;23.50;53.30;;;;;;222112;1257;24187;-54
2023/05/30 19:20:55;;;;;;;1.80;0.80;;;23.60;53.30;;;;;;222414;1268;24212;-54
2023/05/30 19:26:00;;;;;;;1.70;1.00;;;23.50;53.40;;;;;;222678;1264;23890;-50
2023/05/30 19:31:10;;;;;;;1.50;0.90;;;23.50;53.50;;;;;;222616;1264;25441;-52
2023/05/30 19:36:14;;;;;;;0.90;0.90;;;23.40;53.50;;;;;;222721;1268;24361;-55
2023/05/30 19:41:22;;;;;;;1.50;1.00;;;23.40;53.60;;;;;;222787;1268;22640;-55
2023/05/30 19:46:28;;;;;;;1.40;0.90;;;23.40;53.60;;;;;;222538;1268;22512;-55
2023/05/30 19:51:32;;;;;;;1.20;0.90;;;23.40;53.60;;;;;;222762;1268;23881;-52
2023/05/30 19:56:37;;;;;;;2.70;1.00;;;23.40;53.60;;;;;;222883;1268;25502;-48
2023/05/30 20:01:41;;;;;;;1.90;0.80;;;23.40;53.70;;;;;;222558;1267;22508;-55
2023/05/30 20:06:45;;;;;;;1.50;0.90;;;23.40;53.60;;;;;;222625;1268;24149;-54
2023/05/30 20:11:50;;;;;;;1.70;1.20;;;23.30;53.60;;;;;;222796;1266;26552;-52
2023/05/30 20:16:54;;;;;;;1.60;1.10;;;23.30;53.70;;;;;;222673;1268;22515;-54
2023/05/30 20:21:58;;;;;;;1.60;1.00;;;23.30;53.60;;;;;;222686;1268;25380;-52
2023/05/30 20:27:03;;;;;;;0.90;0.80;;;23.30;53.60;;;;;;222661;1268;25459;-56
2023/05/30 20:32:08;;;;;;;0.80;0.80;;;23.30;53.70;;;;;;222665;1266;22534;-51
2023/05/30 20:37:12;;;;;;;1.70;1.10;;;23.30;54.00;;;;;;222602;1268;22519;-54
2023/05/30 20:42:17;;;;;;;1.00;0.80;;;23.30;53.80;;;;;;222627;1268;22585;-51
2023/05/30 20:47:22;;;;;;;1.80;1.10;;;23.20;54.10;;;;;;222604;1266;24722;-51
2023/05/30 20:52:27;;;;;;;0.90;0.90;;;23.20;53.80;;;;;;222607;1267;24676;-53
2023/05/30 20:57:31;;;;;;;1.40;0.80;;;23.20;53.80;;;;;;222582;1268;22864;-52
2023/05/30 21:02:36;;;;;;;2.60;1.10;;;23.20;53.80;;;;;;222703;1268;22507;-51
2023/05/30 21:07:40;;;;;;;3.00;1.00;;;23.20;54.10;;;;;;222728;1268;22997;-51
2023/05/30 21:12:48;;;;;;;1.40;1.20;;;23.20;53.80;;;;;;222602;1268;22637;-51
2023/05/30 21:17:52;;;;;;;1.80;1.30;;;23.20;53.70;;;;;;222754;1268;24232;-51
2023/05/30 21:22:57;;;;;;;1.00;1.00;;;23.20;53.80;;;;;;222661;1268;23866;-52
2023/05/30 21:28:02;;;;;;;1.10;1.00;;;23.20;53.80;;;;;;222900;1263;24067;-49
2023/05/30 21:33:06;;;;;;;1.30;1.20;;;23.10;53.80;;;;;;222578;1268;22594;-52
2023/05/30 21:38:10;;;;;;;2.00;1.20;;;23.10;54.10;;;;;;222720;1268;22618;-50
2023/05/30 21:43:16;;;;;;;2.60;1.50;;;23.10;53.80;;;;;;222689;1268;23757;-54
2023/05/30 21:48:24;;;;;;;1.20;0.90;;;23.10;53.80;;;;;;221879;1272;23956;-53
2023/05/30 21:53:30;;;;;;;1.20;1.10;;;23.10;53.90;;;;;;222071;1272;22858;-54
2023/05/30 21:58:37;;;;;;;1.30;1.20;;;23.10;54.20;;;;;;222053;1267;22514;-54
2023/05/30 22:03:42;;;;;;;1.20;1.10;;;23.10;54.20;;;;;;222179;1272;24255;-57
2023/05/30 22:08:49;;;;;;;0.80;0.80;;;23.10;53.80;;;;;;221730;1272;22592;-52
2023/05/30 22:13:53;;;;;;;1.20;0.90;;;23.10;53.90;;;;;;221850;1272;22721;-52
2023/05/30 22:18:58;;;;;;;1.00;1.00;;;23.10;53.90;;;;;;222196;1268;23887;-54
2023/05/30 22:24:02;;;;;;;0.70;0.70;;;23.00;53.90;;;;;;222529;1268;22521;-54
2023/05/30 22:29:06;;;;;;;1.10;1.00;;;23.10;54.00;;;;;;222575;1268;22521;-54
2023/05/30 22:34:10;;;;;;;1.00;0.90;;;23.10;54.30;;;;;;222311;1268;22622;-51
2023/05/30 22:39:14;;;;;;;2.00;1.30;;;23.00;53.90;;;;;;222575;1267;22722;-57
2023/05/30 22:44:19;;;;;;;1.00;0.90;;;23.00;53.80;;;;;;222277;1268;22511;-50
2023/05/30 22:49:23;;;;;;;1.10;1.00;;;23.00;53.90;;;;;;222438;1268;22535;-52
2023/05/30 22:54:27;;;;;;;1.10;1.10;;;23.00;53.90;;;;;;222522;1268;25468;-51
2023/05/30 22:59:33;;;;;;;0.90;0.90;;;23.00;53.80;;;;;;222433;1268;22527;-52
2023/05/30 23:04:37;;;;;;;0.50;0.50;;;23.00;54.20;;;;;;222461;1268;23530;-49
2023/05/30 23:09:42;;;;;;;1.60;0.90;;;23.00;53.80;;;;;;222555;1267;22517;-54
2023/05/30 23:14:46;;;;;;;1.10;1.00;;;23.00;53.80;;;;;;222513;1268;25603;-54
2023/05/30 23:19:50;;;;;;;0.80;0.70;;;23.00;53.90;;;;;;222473;1268;22734;-55
2023/05/30 23:24:54;;;;;;;0.90;0.90;;;23.00;53.80;;;;;;222732;1268;22573;-53
2023/05/30 23:29:59;;;;;;;1.10;0.80;;;23.00;53.70;;;;;;222569;1267;22530;-53
2023/05/30 23:35:03;;;;;;;1.20;1.00;;;22.90;53.80;;;;;;222701;1264;22516;-55
2023/05/30 23:40:08;;;;;;;0.90;0.90;;;22.90;53.70;;;;;;222657;1267;22510;-54
2023/05/30 23:45:12;;;;;;;2.00;1.00;;;23.00;54.10;;;;;;222841;1268;22524;-56
2023/05/30 23:50:17;;;;;;;1.00;0.90;;;22.90;53.80;;;;;;222958;1267;22783;-54
2023/05/30 23:55:21;;;;;;;1.40;1.30;;;23.00;53.70;;;;;;222777;1268;24225;-50
